createdAt,value
2022-12-03T00:00:14.151Z,12.90
2022-12-03T00:02:42.039Z,12.53
2022-12-03T00:05:11.015Z,20.33
2022-12-03T00:07:40.173Z,15.83
2022-12-03T00:10:09.485Z,10.43
2022-12-03T00:12:37.179Z,12.30
2022-12-03T00:15:05.798Z,10.73
2022-12-03T00:17:33.505Z,11.53
2022-12-03T00:20:01.705Z,11.70
2022-12-03T00:22:29.360Z,11.50
2022-12-03T00:24:58.348Z,14.97
2022-12-03T00:27:26.453Z,8.97
2022-12-03T00:29:54.484Z,10.77
2022-12-03T00:32:22.147Z,13.70
2022-12-03T00:34:50.620Z,11.67
2022-12-03T00:37:18.431Z,9.83
2022-12-03T00:39:47.201Z,11.60
2022-12-03T00:42:16.209Z,13.33
2022-12-03T00:44:44.497Z,13.93
2022-12-03T00:47:12.759Z,14.80
2022-12-03T00:49:41.474Z,14.17
2022-12-03T00:52:09.104Z,15.17
2022-12-03T00:54:37.224Z,15.70
2022-12-03T00:57:05.300Z,21.63
2022-12-03T00:59:35.072Z,15.50
2022-12-03T01:02:02.774Z,16.83
2022-12-03T01:04:31.231Z,17.07
2022-12-03T01:06:58.879Z,16.07
2022-12-03T01:09:26.786Z,13.50
2022-12-03T01:11:54.458Z,16.93
2022-12-03T01:14:22.822Z,16.83
2022-12-03T01:16:52.005Z,21.57
2022-12-03T01:19:19.908Z,15.20
2022-12-03T01:21:49.719Z,18.43
2022-12-03T01:24:18.691Z,19.13
2022-12-03T01:26:47.106Z,20.83
2022-12-03T01:29:15.121Z,18.23
2022-12-03T01:32:16.178Z,16.20
2022-12-03T01:34:45.564Z,18.73
2022-12-03T01:37:13.413Z,22.07
2022-12-03T01:39:41.093Z,21.37
2022-12-03T01:42:10.482Z,22.03
2022-12-03T01:44:39.455Z,24.37
2022-12-03T01:47:11.631Z,19.83
2022-12-03T01:49:43.254Z,22.20
2022-12-03T01:52:15.454Z,17.50
2022-12-03T01:54:47.658Z,17.47
2022-12-03T01:57:22.579Z,19.10
2022-12-03T01:59:51.230Z,18.20
2022-12-03T02:02:23.895Z,21.03
2022-12-03T02:04:53.210Z,18.97
2022-12-03T02:07:26.426Z,18.47
2022-12-03T02:09:55.518Z,22.93
2022-12-03T02:12:28.883Z,17.97
2022-12-03T02:14:56.839Z,16.53
2022-12-03T02:17:25.580Z,17.97
2022-12-03T02:19:53.911Z,15.10
2022-12-03T02:22:38.452Z,21.17
2022-12-03T02:25:18.941Z,23.03
2022-12-03T02:27:47.948Z,21.50
2022-12-03T02:30:19.921Z,20.87
2022-12-03T02:32:48.533Z,19.20
2022-12-03T02:35:18.624Z,14.00
2022-12-03T02:37:49.276Z,23.63
2022-12-03T02:40:21.517Z,18.13
2022-12-03T02:42:52.640Z,15.77
2022-12-03T02:45:24.092Z,19.57
2022-12-03T02:47:54.826Z,16.83
2022-12-03T02:50:26.667Z,18.33
2022-12-03T02:52:56.979Z,17.23
2022-12-03T02:55:30.772Z,17.03
2022-12-03T02:58:04.190Z,20.20
2022-12-03T03:00:32.793Z,14.70
2022-12-03T03:03:01.569Z,15.40
2022-12-03T03:05:29.433Z,15.17
2022-12-03T03:08:00.543Z,19.50
2022-12-03T03:10:31.085Z,15.37
2022-12-03T03:12:59.834Z,15.87
2022-12-03T03:15:27.528Z,18.00
2022-12-03T03:17:56.503Z,17.07
2022-12-03T03:20:24.188Z,17.30
2022-12-03T03:22:52.382Z,21.43
2022-12-03T03:25:22.358Z,19.33
2022-12-03T03:27:52.325Z,18.87
2022-12-03T03:30:20.151Z,17.03
2022-12-03T03:32:48.717Z,17.93
2022-12-03T03:35:17.875Z,13.23
2022-12-03T03:37:46.644Z,16.80
2022-12-03T03:40:14.430Z,16.83
2022-12-03T03:42:42.286Z,18.03
2022-12-03T03:45:11.860Z,18.53
2022-12-03T03:47:40.474Z,16.20
2022-12-03T03:50:10.704Z,15.40
2022-12-03T03:52:40.990Z,15.57
2022-12-03T03:55:11.210Z,17.13
2022-12-03T03:57:40.532Z,21.23
2022-12-03T04:00:09.713Z,16.07
2022-12-03T04:02:39.143Z,27.30
2022-12-03T04:05:07.932Z,26.57
2022-12-03T04:07:35.951Z,25.40
2022-12-03T04:10:24.561Z,16.30
2022-12-03T04:13:00.517Z,21.43
2022-12-03T04:15:29.052Z,23.23
2022-12-03T04:18:17.257Z,31.03
2022-12-03T04:20:45.021Z,20.23
2022-12-03T04:23:12.018Z,18.70
2022-12-03T04:25:57.259Z,21.70
2022-12-03T04:28:42.976Z,17.67
2022-12-03T04:31:24.821Z,17.27
2022-12-03T04:34:26.733Z,18.87
2022-12-03T04:36:56.243Z,23.93
2022-12-03T04:39:24.299Z,20.23
2022-12-03T04:41:51.964Z,23.87
2022-12-03T04:44:36.564Z,20.47
2022-12-03T04:47:07.277Z,14.67
2022-12-03T04:49:37.956Z,18.87
2022-12-03T04:52:05.906Z,14.37
2022-12-03T04:54:34.212Z,14.13
2022-12-03T04:57:01.987Z,19.40
2022-12-03T04:59:30.413Z,16.63
2022-12-03T05:01:58.965Z,23.33
2022-12-03T05:04:27.584Z,19.37
2022-12-03T05:06:56.695Z,21.13
2022-12-03T05:09:24.622Z,18.73
2022-12-03T05:11:52.284Z,15.90
2022-12-03T05:14:20.117Z,17.10
2022-12-03T05:16:47.860Z,18.27
2022-12-03T05:19:15.903Z,20.47
2022-12-03T05:21:42.552Z,18.47
2022-12-03T05:24:11.893Z,19.37
2022-12-03T05:26:39.515Z,19.93
2022-12-03T05:29:07.668Z,17.40
2022-12-03T05:31:35.324Z,18.17
2022-12-03T05:34:04.259Z,14.70
2022-12-03T05:36:31.909Z,13.03
2022-12-03T05:38:59.929Z,16.17
2022-12-03T05:41:46.400Z,16.13
2022-12-03T05:44:18.844Z,16.50
2022-12-03T05:46:47.895Z,14.67
2022-12-03T05:49:15.524Z,18.57
2022-12-03T05:51:44.043Z,11.13
2022-12-03T05:54:12.420Z,17.00
2022-12-03T05:56:41.408Z,14.40
2022-12-03T05:59:09.173Z,8.33
2022-12-03T06:01:36.784Z,14.63
2022-12-03T06:04:05.249Z,30.23
2022-12-03T06:06:32.920Z,15.43
2022-12-03T06:09:00.867Z,10.30
2022-12-03T06:11:29.802Z,18.40
2022-12-03T06:13:59.252Z,12.50
2022-12-03T06:16:27.214Z,13.40
2022-12-03T06:18:55.835Z,11.07
2022-12-03T06:21:23.461Z,16.37
2022-12-03T06:23:51.097Z,16.27
2022-12-03T06:26:18.726Z,13.10
2022-12-03T06:28:47.938Z,14.27
2022-12-03T06:31:17.345Z,12.00
2022-12-03T06:33:45.045Z,15.00
2022-12-03T06:36:12.736Z,18.43
2022-12-03T06:38:40.410Z,15.27
2022-12-03T06:41:08.127Z,11.77
2022-12-03T06:43:35.760Z,16.73
2022-12-03T06:46:03.496Z,15.03
2022-12-03T06:48:32.538Z,16.07
2022-12-03T06:51:00.799Z,13.07
2022-12-03T06:53:28.551Z,12.50
2022-12-03T06:55:56.667Z,14.23
2022-12-03T06:58:24.374Z,10.20
2022-12-03T07:00:52.677Z,9.47
2022-12-03T07:03:21.181Z,11.30
2022-12-03T07:05:50.214Z,10.40
2022-12-03T07:08:17.933Z,18.63
2022-12-03T07:10:46.003Z,10.73
2022-12-03T07:13:13.632Z,12.90
2022-12-03T07:15:41.366Z,12.53
2022-12-03T07:18:09.119Z,13.40
2022-12-03T07:20:37.653Z,16.33
2022-12-03T07:23:06.716Z,23.27
2022-12-03T07:25:34.716Z,13.40
2022-12-03T07:28:02.326Z,11.63
2022-12-03T07:30:30.687Z,12.27
2022-12-03T07:32:58.341Z,13.47
2022-12-03T07:35:26.058Z,18.23
2022-12-03T07:37:53.691Z,14.83
2022-12-03T07:40:23.249Z,15.57
2022-12-03T07:42:50.885Z,15.70
2022-12-03T07:45:19.311Z,16.17
2022-12-03T07:47:46.949Z,12.50
2022-12-03T07:50:15.558Z,12.13
2022-12-03T07:52:43.243Z,12.63
2022-12-03T07:55:13.247Z,10.63
2022-12-03T07:57:42.843Z,12.83
2022-12-03T08:00:12.416Z,13.27
2022-12-03T08:02:40.131Z,12.40
2022-12-03T08:05:08.881Z,9.97
2022-12-03T08:07:36.725Z,12.30
2022-12-03T08:10:05.400Z,7.93
2022-12-03T08:12:40.844Z,10.30
2022-12-03T08:15:16.129Z,11.90
2022-12-03T08:17:45.519Z,9.73
2022-12-03T08:20:18.824Z,10.37
2022-12-03T08:22:49.105Z,12.73
2022-12-03T08:25:22.286Z,7.87
2022-12-03T08:27:50.828Z,7.47
2022-12-03T08:30:20.819Z,8.23
2022-12-03T08:32:49.182Z,7.50
2022-12-03T08:35:23.426Z,10.90
2022-12-03T08:37:58.149Z,8.90
2022-12-03T08:40:34.776Z,7.57
2022-12-03T08:43:02.709Z,6.93
2022-12-03T08:45:42.050Z,10.53
2022-12-03T08:48:25.437Z,11.60
2022-12-03T08:50:55.635Z,6.63
2022-12-03T08:53:33.702Z,16.93
2022-12-03T08:56:03.065Z,21.27
2022-12-03T08:58:49.755Z,14.23
2022-12-03T09:01:34.466Z,9.33
2022-12-03T09:04:19.719Z,7.27
2022-12-03T09:06:48.435Z,7.83
2022-12-03T09:09:16.422Z,7.97
2022-12-03T09:11:44.803Z,17.13
2022-12-03T09:14:18.364Z,18.80
2022-12-03T09:16:47.953Z,14.23
2022-12-03T09:19:15.817Z,10.47
2022-12-03T09:21:44.754Z,7.23
2022-12-03T09:24:13.000Z,7.57
2022-12-03T09:26:41.186Z,6.07
2022-12-03T09:29:12.139Z,7.63
2022-12-03T09:31:40.522Z,7.33
2022-12-03T09:34:09.938Z,13.03
2022-12-03T09:36:38.283Z,8.47
2022-12-03T09:39:06.322Z,9.43
2022-12-03T09:41:34.246Z,7.73
2022-12-03T09:44:04.369Z,7.60
2022-12-03T09:46:35.168Z,8.87
2022-12-03T09:49:03.770Z,10.40
2022-12-03T09:51:36.340Z,9.13
2022-12-03T09:54:06.286Z,5.87
2022-12-03T09:56:38.953Z,9.47
2022-12-03T09:59:08.383Z,9.37
2022-12-03T10:01:36.233Z,18.47
2022-12-03T10:04:04.407Z,15.90
2022-12-03T10:06:33.489Z,9.83
2022-12-03T10:09:01.766Z,24.87
2022-12-03T10:11:31.428Z,20.50
2022-12-03T10:13:59.879Z,26.37
2022-12-03T10:16:30.331Z,31.03
2022-12-03T10:19:01.359Z,12.87
2022-12-03T10:21:38.412Z,10.40
2022-12-03T10:24:26.052Z,12.33
2022-12-03T10:26:55.606Z,12.50
2022-12-03T10:29:31.325Z,12.43
2022-12-03T10:32:02.924Z,30.93
2022-12-03T10:34:32.657Z,14.30
2022-12-03T10:37:15.405Z,11.77
2022-12-03T10:40:00.297Z,12.77
2022-12-03T10:42:30.339Z,16.57
2022-12-03T10:45:19.074Z,14.07
2022-12-03T10:48:07.912Z,9.90
2022-12-03T10:50:36.452Z,10.70
2022-12-03T10:53:05.978Z,12.37
2022-12-03T10:55:39.684Z,11.53
2022-12-03T10:58:11.735Z,10.90
2022-12-03T11:00:39.890Z,10.87
2022-12-03T11:03:19.277Z,15.13
2022-12-03T11:05:47.871Z,10.47
2022-12-03T11:08:18.760Z,9.47
2022-12-03T11:10:57.143Z,14.57
2022-12-03T11:13:51.368Z,14.87
2022-12-03T11:17:08.709Z,13.00
2022-12-03T11:19:51.117Z,10.40
2022-12-03T11:22:30.079Z,11.90
2022-12-03T11:25:32.070Z,16.73
2022-12-03T11:28:37.575Z,15.27
2022-12-03T11:31:14.952Z,22.90
2022-12-03T11:33:44.827Z,20.10
2022-12-03T11:36:31.650Z,13.77
2022-12-03T11:39:04.429Z,21.13
2022-12-03T11:41:34.150Z,16.97
2022-12-03T11:44:06.599Z,11.20
2022-12-03T11:46:44.530Z,11.80
2022-12-03T11:49:30.749Z,22.53
2022-12-03T11:51:59.581Z,11.50
2022-12-03T11:54:27.602Z,10.87
2022-12-03T11:56:56.411Z,11.50
2022-12-03T11:59:24.661Z,11.07
2022-12-03T12:01:53.774Z,9.57
2022-12-03T12:04:31.036Z,8.87
2022-12-03T12:06:58.715Z,10.87
2022-12-03T12:09:52.381Z,13.20
2022-12-03T12:12:27.869Z,8.27
2022-12-03T12:14:56.448Z,11.17
2022-12-03T12:17:36.171Z,13.63
2022-12-03T12:20:28.495Z,13.00
2022-12-03T12:22:56.822Z,17.23
2022-12-03T12:25:42.258Z,10.37
2022-12-03T12:28:10.012Z,12.30
2022-12-03T12:30:37.994Z,13.40
2022-12-03T12:33:26.144Z,15.23
2022-12-03T12:35:55.103Z,15.43
2022-12-03T12:38:24.234Z,16.97
2022-12-03T12:40:52.537Z,12.97
2022-12-03T12:43:25.346Z,11.40
2022-12-03T12:45:55.044Z,11.70
2022-12-03T12:48:26.788Z,16.63
2022-12-03T12:51:01.010Z,24.53
2022-12-03T12:53:31.412Z,29.73
2022-12-03T12:56:01.132Z,28.00
2022-12-03T12:58:31.667Z,18.90
2022-12-03T13:01:02.254Z,20.70
2022-12-03T13:03:35.333Z,17.37
2022-12-03T13:06:04.013Z,17.87
2022-12-03T13:08:34.823Z,18.23
2022-12-03T13:11:04.077Z,13.03
2022-12-03T13:13:43.101Z,12.03
2022-12-03T13:16:17.040Z,12.80
2022-12-03T13:18:48.642Z,13.00
2022-12-03T13:21:23.022Z,19.00
2022-12-03T13:23:53.362Z,12.87
2022-12-03T13:26:34.569Z,15.97
2022-12-03T13:29:11.908Z,18.80
2022-12-03T13:31:43.751Z,15.73
2022-12-03T13:34:19.873Z,15.90
2022-12-03T13:36:55.352Z,20.47
2022-12-03T13:39:28.853Z,17.30
2022-12-03T13:42:14.246Z,15.53
2022-12-03T13:44:46.743Z,13.40
2022-12-03T13:47:19.431Z,19.80
2022-12-03T13:49:54.075Z,18.73
2022-12-03T13:52:24.815Z,16.50
2022-12-03T13:54:55.242Z,18.37
2022-12-03T13:57:23.417Z,20.57
2022-12-03T13:59:51.524Z,17.87
2022-12-03T14:02:20.094Z,18.60
2022-12-03T14:04:49.197Z,18.53
2022-12-03T14:07:17.477Z,17.77
2022-12-03T14:09:45.110Z,14.73
2022-12-03T14:12:33.897Z,19.23
2022-12-03T14:15:02.328Z,18.93
2022-12-03T14:17:31.144Z,20.63
2022-12-03T14:20:01.631Z,12.80
2022-12-03T14:22:30.416Z,19.93
2022-12-03T14:24:58.866Z,19.53
2022-12-03T14:27:27.760Z,20.93
2022-12-03T14:29:55.814Z,25.23
2022-12-03T14:32:24.121Z,22.37
2022-12-03T14:34:51.834Z,14.90
2022-12-03T14:37:21.197Z,18.80
2022-12-03T14:39:48.824Z,14.93
2022-12-03T14:42:18.597Z,13.80
2022-12-03T14:44:48.837Z,18.53
2022-12-03T14:47:18.925Z,17.60
2022-12-03T14:49:47.044Z,16.27
2022-12-03T14:52:15.767Z,18.87
2022-12-03T14:54:45.460Z,14.50
2022-12-03T14:57:15.260Z,17.13
2022-12-03T14:59:44.054Z,16.63
2022-12-03T15:02:13.634Z,21.33
2022-12-03T15:04:42.013Z,15.57
2022-12-03T15:07:10.237Z,15.33
2022-12-03T15:09:37.927Z,20.90
2022-12-03T15:12:08.701Z,19.33
2022-12-03T15:14:36.407Z,13.93
2022-12-03T15:17:04.624Z,15.40
2022-12-03T15:19:32.348Z,18.47
2022-12-03T15:22:00.460Z,15.80
2022-12-03T15:24:28.618Z,15.30
2022-12-03T15:26:56.797Z,19.93
2022-12-03T15:29:26.050Z,19.23
2022-12-03T15:31:54.079Z,17.23
2022-12-03T15:34:23.004Z,17.47
2022-12-03T15:36:51.399Z,23.93
2022-12-03T15:39:19.075Z,21.97
2022-12-03T15:41:47.280Z,17.27
2022-12-03T15:44:14.953Z,17.77
2022-12-03T15:46:44.315Z,18.00
2022-12-03T15:49:12.780Z,22.43
2022-12-03T15:51:40.853Z,15.80
2022-12-03T15:54:08.474Z,18.83
2022-12-03T15:56:37.614Z,21.13
2022-12-03T15:59:05.840Z,19.33
2022-12-03T16:01:33.722Z,21.17
2022-12-03T16:04:03.444Z,21.93
2022-12-03T16:06:31.099Z,19.53
2022-12-03T16:08:58.756Z,19.77
2022-12-03T16:11:26.404Z,15.40
2022-12-03T16:13:54.311Z,20.23
2022-12-03T16:16:22.028Z,17.23
2022-12-03T16:18:50.078Z,21.47
2022-12-03T16:21:23.542Z,20.57
2022-12-03T16:23:54.691Z,16.80
2022-12-03T16:26:22.674Z,20.13
2022-12-03T16:28:50.348Z,20.60
2022-12-03T16:31:18.942Z,21.37
2022-12-03T16:33:47.039Z,20.53
2022-12-03T16:36:15.887Z,24.57
2022-12-03T16:38:45.373Z,20.47
2022-12-03T16:41:12.995Z,33.40
2022-12-03T16:43:41.168Z,20.07
2022-12-03T16:46:25.463Z,21.87
2022-12-03T16:48:55.441Z,27.03
2022-12-03T16:51:26.432Z,25.97
2022-12-03T16:53:55.943Z,19.47
2022-12-03T16:56:23.638Z,23.07
2022-12-03T16:58:51.293Z,22.10
2022-12-03T17:01:19.034Z,18.27
2022-12-03T17:03:47.131Z,20.53
2022-12-03T17:06:14.899Z,23.17
2022-12-03T17:08:48.772Z,22.30
2022-12-03T17:11:19.206Z,22.33
2022-12-03T17:13:47.357Z,17.70
2022-12-03T17:16:15.584Z,24.17
2022-12-03T17:18:44.678Z,23.93
2022-12-03T17:21:12.640Z,27.13
2022-12-03T17:23:40.449Z,22.60
2022-12-03T17:26:08.104Z,20.53
2022-12-03T17:28:37.469Z,22.77
2022-12-03T17:31:05.401Z,24.33
2022-12-03T17:33:33.246Z,24.00
2022-12-03T17:36:01.556Z,23.13
2022-12-03T17:38:31.629Z,24.53
2022-12-03T17:41:03.829Z,25.57
2022-12-03T17:43:31.882Z,27.20
2022-12-03T17:46:01.212Z,19.43
2022-12-03T17:48:30.035Z,22.23
2022-12-03T17:50:58.030Z,19.13
2022-12-03T17:53:26.573Z,21.03
2022-12-03T17:55:54.268Z,22.73
2022-12-03T17:58:22.065Z,21.20
2022-12-03T18:00:49.696Z,28.23
2022-12-03T18:03:19.802Z,21.97
2022-12-03T18:05:47.461Z,25.73
2022-12-03T18:08:15.394Z,23.60
2022-12-03T18:10:43.084Z,23.13
2022-12-03T18:13:10.970Z,20.00
2022-12-03T18:15:39.558Z,18.77
2022-12-03T18:18:07.424Z,21.90
2022-12-03T18:20:36.682Z,27.97
2022-12-03T18:23:04.905Z,20.73
2022-12-03T18:25:32.894Z,18.53
2022-12-03T18:28:00.508Z,28.57
2022-12-03T18:30:28.611Z,20.70
2022-12-03T18:32:56.353Z,23.70
2022-12-03T18:35:24.306Z,18.63
2022-12-03T18:37:53.358Z,18.93
2022-12-03T18:40:24.893Z,21.30
2022-12-03T18:42:54.398Z,23.97
2022-12-03T18:45:22.369Z,18.53
2022-12-03T18:47:50.268Z,19.93
2022-12-03T18:50:18.668Z,17.43
2022-12-03T18:52:46.402Z,19.13
2022-12-03T18:55:19.724Z,21.37
2022-12-03T18:57:47.393Z,16.97
2022-12-03T19:00:17.002Z,17.57
2022-12-03T19:05:33.687Z,15.80
2022-12-03T19:08:02.069Z,19.97
2022-12-03T19:10:31.743Z,14.07
2022-12-03T19:12:59.400Z,16.77
2022-12-03T19:15:27.047Z,11.80
2022-12-03T19:17:54.705Z,15.33
2022-12-03T19:20:23.597Z,20.93
2022-12-03T19:22:51.258Z,16.10
2022-12-03T19:25:19.114Z,14.87
2022-12-03T19:27:49.994Z,17.47
2022-12-03T19:30:18.197Z,17.23
2022-12-03T19:32:45.883Z,18.90
2022-12-03T19:35:13.557Z,10.80
2022-12-03T19:37:41.253Z,15.47
2022-12-03T19:40:11.222Z,15.80
2022-12-03T19:42:39.046Z,13.60
2022-12-03T19:45:09.393Z,15.37
2022-12-03T19:47:37.939Z,16.17
2022-12-03T19:50:07.132Z,17.73
2022-12-03T19:52:36.209Z,19.03
2022-12-03T19:55:05.054Z,19.40
2022-12-03T19:57:32.697Z,15.47
2022-12-03T20:00:01.076Z,17.00
2022-12-03T20:02:30.494Z,16.83
2022-12-03T20:04:58.230Z,13.87
2022-12-03T20:07:26.368Z,13.50
2022-12-03T20:09:54.436Z,16.70
2022-12-03T20:12:22.630Z,15.33
2022-12-03T20:14:51.576Z,13.60
2022-12-03T20:17:19.580Z,16.30
2022-12-03T20:19:49.016Z,14.07
2022-12-03T20:22:16.931Z,21.00
2022-12-03T20:24:44.600Z,14.73
2022-12-03T20:27:12.601Z,13.33
2022-12-03T20:29:40.512Z,12.80
2022-12-03T20:32:08.717Z,12.03
2022-12-03T20:34:36.488Z,17.80
2022-12-03T20:37:06.507Z,15.03
2022-12-03T20:39:34.220Z,15.67
2022-12-03T20:42:02.223Z,17.40
2022-12-03T20:44:29.939Z,17.40
2022-12-03T20:46:57.838Z,14.10
2022-12-03T20:49:25.530Z,13.20
2022-12-03T20:51:53.180Z,17.33
2022-12-03T20:54:22.199Z,15.87
2022-12-03T20:56:50.444Z,15.43
2022-12-03T20:59:19.278Z,16.00
2022-12-03T21:01:47.050Z,13.37
2022-12-03T21:04:16.291Z,16.40
2022-12-03T21:06:44.089Z,15.30
2022-12-03T21:09:12.929Z,16.70
2022-12-03T21:11:43.858Z,17.03
2022-12-03T21:14:12.383Z,19.37
2022-12-03T21:19:30.604Z,15.93
2022-12-03T21:21:58.651Z,14.53
2022-12-03T21:24:26.544Z,15.63
2022-12-03T21:26:55.958Z,9.47
2022-12-03T21:29:24.371Z,13.40
2022-12-03T21:31:52.450Z,18.70
2022-12-03T21:34:20.333Z,18.77
2022-12-03T21:36:48.392Z,17.60
2022-12-03T21:39:16.032Z,13.60
2022-12-03T21:42:19.337Z,14.23
2022-12-03T21:44:33.160Z,12.90
2022-12-03T21:47:10.774Z,12.20
2022-12-03T21:49:41.844Z,14.43
2022-12-03T21:52:10.302Z,9.43
2022-12-03T21:54:37.949Z,11.93
2022-12-03T21:57:06.086Z,13.63
2022-12-03T21:59:35.204Z,11.43
2022-12-03T22:02:03.186Z,11.00
2022-12-03T22:04:30.997Z,11.70
2022-12-03T22:06:59.231Z,15.93
2022-12-03T22:09:27.258Z,14.10
2022-12-03T22:11:57.187Z,16.77
2022-12-03T22:14:24.835Z,13.27
2022-12-03T22:16:54.191Z,19.00
2022-12-03T22:19:23.375Z,18.07
2022-12-03T22:21:51.084Z,15.07
2022-12-03T22:24:19.558Z,16.00
2022-12-03T22:26:47.478Z,15.23
2022-12-03T22:29:15.156Z,16.87
2022-12-03T22:31:43.285Z,22.00
2022-12-03T22:34:12.319Z,18.47
2022-12-03T22:36:39.973Z,17.30
2022-12-03T22:39:08.050Z,15.33
2022-12-03T22:41:35.711Z,16.80
2022-12-03T22:44:03.788Z,16.43
2022-12-03T22:46:31.594Z,17.33
2022-12-03T22:49:03.438Z,21.40
2022-12-03T22:51:36.274Z,14.80
2022-12-03T22:54:05.409Z,17.13
2022-12-03T22:56:33.654Z,13.43
2022-12-03T22:59:02.152Z,14.80
2022-12-03T23:01:32.698Z,17.40
2022-12-03T23:04:02.187Z,19.07
2022-12-03T23:06:31.595Z,13.93
2022-12-03T23:09:01.169Z,16.07
2022-12-03T23:11:29.615Z,20.20
2022-12-03T23:13:59.033Z,16.20
2022-12-03T23:16:29.837Z,15.30
2022-12-03T23:18:59.497Z,15.87
2022-12-03T23:21:30.630Z,14.43
2022-12-03T23:24:00.564Z,12.07
2022-12-03T23:26:29.181Z,13.70
2022-12-03T23:28:57.523Z,20.73
2022-12-03T23:31:28.063Z,19.07
2022-12-03T23:33:56.871Z,16.97
2022-12-03T23:36:26.338Z,11.40
2022-12-03T23:38:55.608Z,14.47
2022-12-03T23:41:25.131Z,13.00
2022-12-03T23:43:54.031Z,12.00
2022-12-03T23:46:24.402Z,17.43
2022-12-03T23:48:52.949Z,12.57
2022-12-03T23:51:23.135Z,15.90
2022-12-03T23:53:52.726Z,14.73
2022-12-03T23:56:22.829Z,12.93
2022-12-03T23:58:52.365Z,14.37
